sensor_id;sensor_type;location;lat;lon;timestamp;P1;durP1;ratioP1;P2;durP2;ratioP2
15307;SDS011;7755;52.208;6.964;2023-02-28T00:01:54;11.13;;;9.73;;
15307;SDS011;7755;52.208;6.964;2023-02-28T00:05:58;10.90;;;9.60;;
15307;SDS011;7755;52.208;6.964;2023-02-28T00:10:02;10.80;;;9.80;;
15307;SDS011;7755;52.208;6.964;2023-02-28T00:14:05;9.20;;;8.30;;
15307;SDS011;7755;52.208;6.964;2023-02-28T00:18:08;9.30;;;8.50;;
15307;SDS011;7755;52.208;6.964;2023-02-28T00:22:14;9.60;;;8.70;;
15307;SDS011;7755;52.208;6.964;2023-02-28T00:26:18;9.80;;;8.87;;
15307;SDS011;7755;52.208;6.964;2023-02-28T00:30:23;10.83;;;9.10;;
15307;SDS011;7755;52.208;6.964;2023-02-28T00:34:26;9.90;;;8.90;;
15307;SDS011;7755;52.208;6.964;2023-02-28T00:38:31;9.80;;;8.37;;
15307;SDS011;7755;52.208;6.964;2023-02-28T00:42:35;9.47;;;8.57;;
15307;SDS011;7755;52.208;6.964;2023-02-28T00:46:38;11.90;;;10.20;;
15307;SDS011;7755;52.208;6.964;2023-02-28T00:50:42;10.03;;;8.87;;
15307;SDS011;7755;52.208;6.964;2023-02-28T00:54:46;8.87;;;8.07;;
15307;SDS011;7755;52.208;6.964;2023-02-28T00:58:49;9.50;;;8.60;;
15307;SDS011;7755;52.208;6.964;2023-02-28T01:02:53;9.67;;;8.77;;
15307;SDS011;7755;52.208;6.964;2023-02-28T01:06:56;8.90;;;8.07;;
15307;SDS011;7755;52.208;6.964;2023-02-28T01:11:07;12.07;;;8.60;;
15307;SDS011;7755;52.208;6.964;2023-02-28T01:15:14;9.57;;;8.77;;
15307;SDS011;7755;52.208;6.964;2023-02-28T01:19:19;9.73;;;8.73;;
15307;SDS011;7755;52.208;6.964;2023-02-28T01:23:22;11.17;;;9.17;;
15307;SDS011;7755;52.208;6.964;2023-02-28T01:27:26;9.37;;;7.60;;
15307;SDS011;7755;52.208;6.964;2023-02-28T01:31:30;11.43;;;8.97;;
15307;SDS011;7755;52.208;6.964;2023-02-28T01:35:33;9.70;;;8.70;;
15307;SDS011;7755;52.208;6.964;2023-02-28T01:39:37;9.13;;;8.23;;
15307;SDS011;7755;52.208;6.964;2023-02-28T01:48:28;9.67;;;8.80;;
15307;SDS011;7755;52.208;6.964;2023-02-28T01:52:34;9.93;;;8.93;;
15307;SDS011;7755;52.208;6.964;2023-02-28T01:56:38;9.13;;;8.23;;
15307;SDS011;7755;52.208;6.964;2023-02-28T02:00:46;11.03;;;9.10;;
15307;SDS011;7755;52.208;6.964;2023-02-28T02:04:53;9.53;;;8.63;;
15307;SDS011;7755;52.208;6.964;2023-02-28T02:08:59;9.57;;;8.77;;
15307;SDS011;7755;52.208;6.964;2023-02-28T02:13:05;12.37;;;9.07;;
15307;SDS011;7755;52.208;6.964;2023-02-28T02:17:19;9.57;;;8.70;;
15307;SDS011;7755;52.208;6.964;2023-02-28T02:26:02;9.90;;;8.97;;
15307;SDS011;7755;52.208;6.964;2023-02-28T02:30:45;12.20;;;9.57;;
15307;SDS011;7755;52.208;6.964;2023-02-28T02:35:02;10.90;;;9.80;;
15307;SDS011;7755;52.208;6.964;2023-02-28T02:39:16;10.20;;;8.90;;
15307;SDS011;7755;52.208;6.964;2023-02-28T02:43:22;10.30;;;9.20;;
15307;SDS011;7755;52.208;6.964;2023-02-28T02:47:31;10.23;;;9.33;;
15307;SDS011;7755;52.208;6.964;2023-02-28T02:51:38;10.37;;;9.30;;
15307;SDS011;7755;52.208;6.964;2023-02-28T02:55:46;9.30;;;8.40;;
15307;SDS011;7755;52.208;6.964;2023-02-28T02:59:58;9.53;;;8.63;;
15307;SDS011;7755;52.208;6.964;2023-02-28T03:04:04;9.53;;;8.63;;
15307;SDS011;7755;52.208;6.964;2023-02-28T03:08:11;9.40;;;8.50;;
15307;SDS011;7755;52.208;6.964;2023-02-28T03:12:14;10.23;;;9.23;;
15307;SDS011;7755;52.208;6.964;2023-02-28T03:16:23;10.73;;;8.47;;
15307;SDS011;7755;52.208;6.964;2023-02-28T03:20:36;11.83;;;8.77;;
15307;SDS011;7755;52.208;6.964;2023-02-28T03:24:45;9.03;;;8.23;;
15307;SDS011;7755;52.208;6.964;2023-02-28T03:28:54;8.13;;;7.33;;
15307;SDS011;7755;52.208;6.964;2023-02-28T03:33:06;8.90;;;8.00;;
15307;SDS011;7755;52.208;6.964;2023-02-28T03:37:14;8.53;;;7.63;;
15307;SDS011;7755;52.208;6.964;2023-02-28T03:41:25;9.47;;;8.47;;
15307;SDS011;7755;52.208;6.964;2023-02-28T03:45:33;9.40;;;8.43;;
15307;SDS011;7755;52.208;6.964;2023-02-28T03:49:41;8.10;;;7.30;;
15307;SDS011;7755;52.208;6.964;2023-02-28T03:53:50;10.17;;;8.73;;
15307;SDS011;7755;52.208;6.964;2023-02-28T03:57:58;8.50;;;7.70;;
15307;SDS011;7755;52.208;6.964;2023-02-28T04:02:04;7.77;;;7.07;;
15307;SDS011;7755;52.208;6.964;2023-02-28T04:06:08;9.07;;;7.90;;
15307;SDS011;7755;52.208;6.964;2023-02-28T04:10:17;8.77;;;7.87;;
15307;SDS011;7755;52.208;6.964;2023-02-28T04:14:22;8.23;;;7.33;;
15307;SDS011;7755;52.208;6.964;2023-02-28T04:18:25;9.33;;;8.07;;
15307;SDS011;7755;52.208;6.964;2023-02-28T04:22:28;7.97;;;7.27;;
15307;SDS011;7755;52.208;6.964;2023-02-28T04:26:31;8.63;;;7.93;;
15307;SDS011;7755;52.208;6.964;2023-02-28T04:30:36;9.27;;;8.37;;
15307;SDS011;7755;52.208;6.964;2023-02-28T04:34:40;8.63;;;7.83;;
15307;SDS011;7755;52.208;6.964;2023-02-28T04:38:45;10.77;;;9.03;;
15307;SDS011;7755;52.208;6.964;2023-02-28T04:42:49;10.27;;;9.13;;
15307;SDS011;7755;52.208;6.964;2023-02-28T04:46:53;10.47;;;9.43;;
15307;SDS011;7755;52.208;6.964;2023-02-28T04:50:59;10.13;;;9.13;;
15307;SDS011;7755;52.208;6.964;2023-02-28T04:55:03;10.60;;;9.37;;
15307;SDS011;7755;52.208;6.964;2023-02-28T04:59:07;9.70;;;8.70;;
15307;SDS011;7755;52.208;6.964;2023-02-28T05:03:11;9.47;;;8.50;;
15307;SDS011;7755;52.208;6.964;2023-02-28T05:07:14;10.50;;;9.50;;
15307;SDS011;7755;52.208;6.964;2023-02-28T05:11:18;10.23;;;9.27;;
15307;SDS011;7755;52.208;6.964;2023-02-28T05:15:23;9.30;;;8.50;;
15307;SDS011;7755;52.208;6.964;2023-02-28T05:19:28;12.57;;;9.60;;
15307;SDS011;7755;52.208;6.964;2023-02-28T05:23:31;10.33;;;9.23;;
15307;SDS011;7755;52.208;6.964;2023-02-28T05:27:35;10.20;;;8.97;;
15307;SDS011;7755;52.208;6.964;2023-02-28T05:31:40;9.80;;;8.90;;
15307;SDS011;7755;52.208;6.964;2023-02-28T05:35:44;10.93;;;9.53;;
15307;SDS011;7755;52.208;6.964;2023-02-28T05:39:48;10.40;;;8.90;;
15307;SDS011;7755;52.208;6.964;2023-02-28T05:43:51;9.30;;;8.33;;
15307;SDS011;7755;52.208;6.964;2023-02-28T05:47:54;10.50;;;9.50;;
15307;SDS011;7755;52.208;6.964;2023-02-28T05:51:59;11.50;;;9.00;;
15307;SDS011;7755;52.208;6.964;2023-02-28T05:56:03;9.53;;;8.53;;
15307;SDS011;7755;52.208;6.964;2023-02-28T06:00:07;9.90;;;8.73;;
15307;SDS011;7755;52.208;6.964;2023-02-28T06:04:14;9.77;;;8.87;;
15307;SDS011;7755;52.208;6.964;2023-02-28T06:08:33;9.57;;;8.67;;
15307;SDS011;7755;52.208;6.964;2023-02-28T06:12:36;9.67;;;8.63;;
15307;SDS011;7755;52.208;6.964;2023-02-28T06:16:40;9.63;;;8.63;;
15307;SDS011;7755;52.208;6.964;2023-02-28T06:20:43;9.90;;;8.17;;
15307;SDS011;7755;52.208;6.964;2023-02-28T06:24:47;8.37;;;7.63;;
15307;SDS011;7755;52.208;6.964;2023-02-28T06:28:51;9.03;;;8.23;;
15307;SDS011;7755;52.208;6.964;2023-02-28T06:32:54;11.93;;;10.83;;
15307;SDS011;7755;52.208;6.964;2023-02-28T06:36:57;11.60;;;10.07;;
15307;SDS011;7755;52.208;6.964;2023-02-28T06:41:05;10.87;;;9.77;;
15307;SDS011;7755;52.208;6.964;2023-02-28T06:45:09;11.87;;;9.17;;
15307;SDS011;7755;52.208;6.964;2023-02-28T06:49:12;11.90;;;9.20;;
15307;SDS011;7755;52.208;6.964;2023-02-28T06:53:15;9.10;;;8.13;;
15307;SDS011;7755;52.208;6.964;2023-02-28T06:57:20;9.53;;;8.20;;
15307;SDS011;7755;52.208;6.964;2023-02-28T07:01:23;8.33;;;7.60;;
15307;SDS011;7755;52.208;6.964;2023-02-28T07:05:26;8.80;;;8.00;;
15307;SDS011;7755;52.208;6.964;2023-02-28T07:09:29;9.27;;;7.67;;
15307;SDS011;7755;52.208;6.964;2023-02-28T07:13:33;8.90;;;8.10;;
15307;SDS011;7755;52.208;6.964;2023-02-28T07:17:36;10.27;;;7.87;;
15307;SDS011;7755;52.208;6.964;2023-02-28T07:21:39;7.70;;;6.90;;
15307;SDS011;7755;52.208;6.964;2023-02-28T07:25:43;6.70;;;6.27;;
15307;SDS011;7755;52.208;6.964;2023-02-28T07:29:48;7.93;;;7.13;;
15307;SDS011;7755;52.208;6.964;2023-02-28T07:33:51;8.17;;;7.47;;
15307;SDS011;7755;52.208;6.964;2023-02-28T07:37:56;8.47;;;7.77;;
15307;SDS011;7755;52.208;6.964;2023-02-28T07:41:59;9.10;;;8.30;;
15307;SDS011;7755;52.208;6.964;2023-02-28T07:46:09;7.90;;;7.20;;
15307;SDS011;7755;52.208;6.964;2023-02-28T07:50:14;8.37;;;7.53;;
15307;SDS011;7755;52.208;6.964;2023-02-28T07:54:19;7.93;;;7.13;;
15307;SDS011;7755;52.208;6.964;2023-02-28T07:58:23;8.13;;;7.27;;
15307;SDS011;7755;52.208;6.964;2023-02-28T08:02:27;7.93;;;7.13;;
15307;SDS011;7755;52.208;6.964;2023-02-28T08:06:30;8.07;;;7.03;;
15307;SDS011;7755;52.208;6.964;2023-02-28T08:10:33;7.23;;;6.63;;
15307;SDS011;7755;52.208;6.964;2023-02-28T08:14:37;7.77;;;6.40;;
15307;SDS011;7755;52.208;6.964;2023-02-28T08:18:42;6.60;;;6.10;;
15307;SDS011;7755;52.208;6.964;2023-02-28T08:22:46;6.40;;;5.83;;
15307;SDS011;7755;52.208;6.964;2023-02-28T08:26:49;5.73;;;5.23;;
15307;SDS011;7755;52.208;6.964;2023-02-28T08:30:53;5.30;;;4.90;;
15307;SDS011;7755;52.208;6.964;2023-02-28T08:34:57;5.47;;;4.53;;
15307;SDS011;7755;52.208;6.964;2023-02-28T08:39:01;4.73;;;4.23;;
15307;SDS011;7755;52.208;6.964;2023-02-28T08:43:04;4.93;;;4.53;;
15307;SDS011;7755;52.208;6.964;2023-02-28T08:47:12;5.10;;;4.50;;
15307;SDS011;7755;52.208;6.964;2023-02-28T08:51:17;3.33;;;3.13;;
15307;SDS011;7755;52.208;6.964;2023-02-28T08:55:23;2.63;;;2.43;;
15307;SDS011;7755;52.208;6.964;2023-02-28T08:59:26;2.73;;;2.53;;
15307;SDS011;7755;52.208;6.964;2023-02-28T09:03:29;2.80;;;2.60;;
15307;SDS011;7755;52.208;6.964;2023-02-28T09:07:34;3.70;;;3.23;;
15307;SDS011;7755;52.208;6.964;2023-02-28T09:11:37;3.00;;;2.77;;
15307;SDS011;7755;52.208;6.964;2023-02-28T09:15:40;2.93;;;2.73;;
15307;SDS011;7755;52.208;6.964;2023-02-28T09:19:43;2.37;;;2.17;;
15307;SDS011;7755;52.208;6.964;2023-02-28T09:23:49;1.93;;;1.83;;
15307;SDS011;7755;52.208;6.964;2023-02-28T09:27:53;2.43;;;2.23;;
15307;SDS011;7755;52.208;6.964;2023-02-28T09:31:56;2.80;;;2.17;;
15307;SDS011;7755;52.208;6.964;2023-02-28T09:36:00;2.10;;;2.00;;
15307;SDS011;7755;52.208;6.964;2023-02-28T09:40:07;2.23;;;2.13;;
15307;SDS011;7755;52.208;6.964;2023-02-28T09:44:12;2.33;;;2.20;;
15307;SDS011;7755;52.208;6.964;2023-02-28T09:48:21;2.03;;;1.93;;
15307;SDS011;7755;52.208;6.964;2023-02-28T09:52:28;2.30;;;2.10;;
15307;SDS011;7755;52.208;6.964;2023-02-28T09:56:36;4.17;;;2.27;;
15307;SDS011;7755;52.208;6.964;2023-02-28T10:00:41;2.00;;;1.90;;
15307;SDS011;7755;52.208;6.964;2023-02-28T10:04:46;2.63;;;2.43;;
15307;SDS011;7755;52.208;6.964;2023-02-28T10:08:55;2.93;;;2.60;;
15307;SDS011;7755;52.208;6.964;2023-02-28T10:13:06;2.57;;;2.40;;
15307;SDS011;7755;52.208;6.964;2023-02-28T10:17:16;2.53;;;2.43;;
15307;SDS011;7755;52.208;6.964;2023-02-28T10:21:26;2.73;;;2.53;;
15307;SDS011;7755;52.208;6.964;2023-02-28T10:25:31;2.37;;;2.23;;
15307;SDS011;7755;52.208;6.964;2023-02-28T10:29:36;3.20;;;2.50;;
15307;SDS011;7755;52.208;6.964;2023-02-28T10:33:42;2.60;;;2.43;;
15307;SDS011;7755;52.208;6.964;2023-02-28T10:37:46;2.30;;;2.20;;
15307;SDS011;7755;52.208;6.964;2023-02-28T10:41:51;2.80;;;2.60;;
15307;SDS011;7755;52.208;6.964;2023-02-28T10:45:59;2.90;;;2.60;;
15307;SDS011;7755;52.208;6.964;2023-02-28T10:50:05;2.80;;;2.60;;
15307;SDS011;7755;52.208;6.964;2023-02-28T10:54:29;2.60;;;2.40;;
15307;SDS011;7755;52.208;6.964;2023-02-28T10:58:44;2.93;;;2.73;;
15307;SDS011;7755;52.208;6.964;2023-02-28T11:02:52;2.93;;;2.63;;
15307;SDS011;7755;52.208;6.964;2023-02-28T11:06:59;2.47;;;2.27;;
15307;SDS011;7755;52.208;6.964;2023-02-28T11:11:04;2.97;;;2.60;;
15307;SDS011;7755;52.208;6.964;2023-02-28T11:15:18;3.87;;;2.90;;
15307;SDS011;7755;52.208;6.964;2023-02-28T11:19:28;3.00;;;2.80;;
15307;SDS011;7755;52.208;6.964;2023-02-28T11:23:36;2.67;;;2.43;;
15307;SDS011;7755;52.208;6.964;2023-02-28T11:27:45;2.87;;;2.67;;
15307;SDS011;7755;52.208;6.964;2023-02-28T11:32:04;2.87;;;2.47;;
15307;SDS011;7755;52.208;6.964;2023-02-28T11:36:16;2.50;;;2.30;;
15307;SDS011;7755;52.208;6.964;2023-02-28T11:40:24;2.60;;;2.50;;
15307;SDS011;7755;52.208;6.964;2023-02-28T11:44:38;2.37;;;2.27;;
15307;SDS011;7755;52.208;6.964;2023-02-28T11:48:56;2.57;;;2.37;;
15307;SDS011;7755;52.208;6.964;2023-02-28T11:53:10;2.43;;;2.23;;
15307;SDS011;7755;52.208;6.964;2023-02-28T11:57:28;2.50;;;2.30;;
15307;SDS011;7755;52.208;6.964;2023-02-28T12:01:44;4.27;;;2.40;;
15307;SDS011;7755;52.208;6.964;2023-02-28T12:06:06;2.23;;;2.10;;
15307;SDS011;7755;52.208;6.964;2023-02-28T12:10:21;2.07;;;1.97;;
15307;SDS011;7755;52.208;6.964;2023-02-28T12:14:38;2.33;;;2.20;;
15307;SDS011;7755;52.208;6.964;2023-02-28T12:19:01;2.40;;;2.30;;
15307;SDS011;7755;52.208;6.964;2023-02-28T12:23:21;2.60;;;2.40;;
15307;SDS011;7755;52.208;6.964;2023-02-28T12:27:43;2.30;;;2.20;;
15307;SDS011;7755;52.208;6.964;2023-02-28T12:31:49;2.50;;;2.30;;
15307;SDS011;7755;52.208;6.964;2023-02-28T12:35:56;2.83;;;2.63;;
15307;SDS011;7755;52.208;6.964;2023-02-28T12:40:03;2.00;;;1.90;;
15307;SDS011;7755;52.208;6.964;2023-02-28T12:44:13;3.27;;;2.40;;
15307;SDS011;7755;52.208;6.964;2023-02-28T12:48:24;2.87;;;2.67;;
15307;SDS011;7755;52.208;6.964;2023-02-28T12:52:35;2.77;;;2.57;;
15307;SDS011;7755;52.208;6.964;2023-02-28T12:56:47;3.07;;;2.87;;
15307;SDS011;7755;52.208;6.964;2023-02-28T13:01:04;3.10;;;2.90;;
15307;SDS011;7755;52.208;6.964;2023-02-28T13:05:26;3.37;;;3.10;;
15307;SDS011;7755;52.208;6.964;2023-02-28T13:09:40;3.30;;;3.00;;
15307;SDS011;7755;52.208;6.964;2023-02-28T13:13:44;3.00;;;2.80;;
15307;SDS011;7755;52.208;6.964;2023-02-28T13:17:49;3.30;;;3.00;;
15307;SDS011;7755;52.208;6.964;2023-02-28T13:21:55;3.83;;;3.53;;
15307;SDS011;7755;52.208;6.964;2023-02-28T13:25:59;3.40;;;3.20;;
15307;SDS011;7755;52.208;6.964;2023-02-28T13:35:11;3.50;;;3.30;;
15307;SDS011;7755;52.208;6.964;2023-02-28T13:39:45;3.10;;;2.90;;
15307;SDS011;7755;52.208;6.964;2023-02-28T13:44:01;3.43;;;3.23;;
15307;SDS011;7755;52.208;6.964;2023-02-28T13:48:15;3.43;;;3.23;;
15307;SDS011;7755;52.208;6.964;2023-02-28T13:52:22;3.27;;;3.07;;
15307;SDS011;7755;52.208;6.964;2023-02-28T13:56:31;3.10;;;2.80;;
15307;SDS011;7755;52.208;6.964;2023-02-28T14:00:48;3.07;;;2.87;;
15307;SDS011;7755;52.208;6.964;2023-02-28T14:05:12;2.50;;;2.30;;
15307;SDS011;7755;52.208;6.964;2023-02-28T14:09:21;3.50;;;3.30;;
15307;SDS011;7755;52.208;6.964;2023-02-28T14:13:38;3.63;;;3.33;;
15307;SDS011;7755;52.208;6.964;2023-02-28T14:17:46;2.60;;;2.40;;
15307;SDS011;7755;52.208;6.964;2023-02-28T14:21:59;2.80;;;2.60;;
15307;SDS011;7755;52.208;6.964;2023-02-28T14:26:16;12.13;;;11.13;;
15307;SDS011;7755;52.208;6.964;2023-02-28T14:30:56;3.83;;;3.50;;
15307;SDS011;7755;52.208;6.964;2023-02-28T14:35:13;4.17;;;3.70;;
15307;SDS011;7755;52.208;6.964;2023-02-28T14:39:25;3.47;;;3.20;;
15307;SDS011;7755;52.208;6.964;2023-02-28T14:43:33;3.73;;;3.43;;
15307;SDS011;7755;52.208;6.964;2023-02-28T14:47:36;3.57;;;3.37;;
15307;SDS011;7755;52.208;6.964;2023-02-28T14:51:39;3.53;;;3.33;;
15307;SDS011;7755;52.208;6.964;2023-02-28T14:55:43;3.40;;;3.20;;
15307;SDS011;7755;52.208;6.964;2023-02-28T14:59:56;4.53;;;3.87;;
15307;SDS011;7755;52.208;6.964;2023-02-28T15:04:01;3.43;;;3.23;;
15307;SDS011;7755;52.208;6.964;2023-02-28T15:08:09;3.50;;;3.20;;
15307;SDS011;7755;52.208;6.964;2023-02-28T15:12:15;3.60;;;3.30;;
15307;SDS011;7755;52.208;6.964;2023-02-28T15:16:21;2.90;;;2.70;;
15307;SDS011;7755;52.208;6.964;2023-02-28T15:20:28;3.67;;;3.47;;
15307;SDS011;7755;52.208;6.964;2023-02-28T15:24:34;3.60;;;3.40;;
15307;SDS011;7755;52.208;6.964;2023-02-28T15:28:40;3.67;;;3.37;;
15307;SDS011;7755;52.208;6.964;2023-02-28T15:32:44;3.50;;;3.30;;
15307;SDS011;7755;52.208;6.964;2023-02-28T15:36:47;4.10;;;3.20;;
15307;SDS011;7755;52.208;6.964;2023-02-28T15:40:51;3.30;;;3.10;;
15307;SDS011;7755;52.208;6.964;2023-02-28T15:44:55;4.00;;;3.70;;
15307;SDS011;7755;52.208;6.964;2023-02-28T15:49:00;4.17;;;3.77;;
15307;SDS011;7755;52.208;6.964;2023-02-28T15:53:04;3.87;;;3.57;;
15307;SDS011;7755;52.208;6.964;2023-02-28T15:57:15;3.80;;;3.50;;
15307;SDS011;7755;52.208;6.964;2023-02-28T16:01:23;4.10;;;3.80;;
15307;SDS011;7755;52.208;6.964;2023-02-28T16:05:31;3.40;;;3.20;;
15307;SDS011;7755;52.208;6.964;2023-02-28T16:09:34;3.57;;;3.37;;
15307;SDS011;7755;52.208;6.964;2023-02-28T16:13:39;3.47;;;3.17;;
15307;SDS011;7755;52.208;6.964;2023-02-28T16:17:42;2.83;;;2.73;;
15307;SDS011;7755;52.208;6.964;2023-02-28T16:21:48;3.57;;;3.27;;
15307;SDS011;7755;52.208;6.964;2023-02-28T16:25:51;3.10;;;2.90;;
15307;SDS011;7755;52.208;6.964;2023-02-28T16:29:54;4.03;;;3.50;;
15307;SDS011;7755;52.208;6.964;2023-02-28T16:33:57;3.90;;;3.70;;
15307;SDS011;7755;52.208;6.964;2023-02-28T16:38:02;4.07;;;3.50;;
15307;SDS011;7755;52.208;6.964;2023-02-28T16:42:05;3.73;;;3.40;;
15307;SDS011;7755;52.208;6.964;2023-02-28T16:46:09;4.83;;;4.43;;
15307;SDS011;7755;52.208;6.964;2023-02-28T16:50:14;4.93;;;4.30;;
15307;SDS011;7755;52.208;6.964;2023-02-28T16:54:21;5.97;;;5.37;;
15307;SDS011;7755;52.208;6.964;2023-02-28T16:58:24;4.33;;;4.03;;
15307;SDS011;7755;52.208;6.964;2023-02-28T17:02:28;4.20;;;3.80;;
15307;SDS011;7755;52.208;6.964;2023-02-28T17:06:33;4.30;;;3.90;;
15307;SDS011;7755;52.208;6.964;2023-02-28T17:10:38;4.77;;;4.37;;
15307;SDS011;7755;52.208;6.964;2023-02-28T17:14:42;5.63;;;5.07;;
15307;SDS011;7755;52.208;6.964;2023-02-28T17:18:48;5.20;;;4.80;;
15307;SDS011;7755;52.208;6.964;2023-02-28T17:22:58;5.33;;;4.83;;
15307;SDS011;7755;52.208;6.964;2023-02-28T17:27:03;4.87;;;4.47;;
15307;SDS011;7755;52.208;6.964;2023-02-28T17:31:07;4.10;;;3.80;;
15307;SDS011;7755;52.208;6.964;2023-02-28T17:35:11;5.10;;;4.70;;
15307;SDS011;7755;52.208;6.964;2023-02-28T17:39:16;6.30;;;4.50;;
15307;SDS011;7755;52.208;6.964;2023-02-28T17:43:28;5.07;;;4.57;;
15307;SDS011;7755;52.208;6.964;2023-02-28T17:47:31;5.13;;;4.73;;
15307;SDS011;7755;52.208;6.964;2023-02-28T17:51:34;5.27;;;4.87;;
15307;SDS011;7755;52.208;6.964;2023-02-28T17:55:37;5.67;;;5.07;;
15307;SDS011;7755;52.208;6.964;2023-02-28T17:59:43;5.77;;;5.37;;
15307;SDS011;7755;52.208;6.964;2023-02-28T18:03:46;6.17;;;5.67;;
15307;SDS011;7755;52.208;6.964;2023-02-28T18:07:49;6.00;;;5.50;;
15307;SDS011;7755;52.208;6.964;2023-02-28T18:11:54;5.67;;;5.20;;
15307;SDS011;7755;52.208;6.964;2023-02-28T18:15:59;7.20;;;6.50;;
15307;SDS011;7755;52.208;6.964;2023-02-28T18:20:02;7.43;;;6.80;;
15307;SDS011;7755;52.208;6.964;2023-02-28T18:24:07;7.73;;;7.03;;
15307;SDS011;7755;52.208;6.964;2023-02-28T18:28:11;9.93;;;9.00;;
15307;SDS011;7755;52.208;6.964;2023-02-28T18:32:15;9.33;;;8.53;;
15307;SDS011;7755;52.208;6.964;2023-02-28T18:36:20;8.50;;;7.63;;
15307;SDS011;7755;52.208;6.964;2023-02-28T18:40:23;7.73;;;7.03;;
15307;SDS011;7755;52.208;6.964;2023-02-28T18:44:27;7.20;;;6.50;;
15307;SDS011;7755;52.208;6.964;2023-02-28T18:48:32;7.10;;;6.50;;
15307;SDS011;7755;52.208;6.964;2023-02-28T18:52:36;6.93;;;6.43;;
15307;SDS011;7755;52.208;6.964;2023-02-28T18:56:40;7.60;;;6.90;;
15307;SDS011;7755;52.208;6.964;2023-02-28T19:00:43;7.70;;;6.97;;
15307;SDS011;7755;52.208;6.964;2023-02-28T19:04:50;9.80;;;7.97;;
15307;SDS011;7755;52.208;6.964;2023-02-28T19:08:53;8.30;;;7.50;;
15307;SDS011;7755;52.208;6.964;2023-02-28T19:12:57;8.53;;;7.67;;
15307;SDS011;7755;52.208;6.964;2023-02-28T19:17:00;8.23;;;7.53;;
15307;SDS011;7755;52.208;6.964;2023-02-28T19:21:15;9.83;;;8.83;;
15307;SDS011;7755;52.208;6.964;2023-02-28T19:25:19;11.23;;;9.97;;
15307;SDS011;7755;52.208;6.964;2023-02-28T19:29:23;9.70;;;8.70;;
15307;SDS011;7755;52.208;6.964;2023-02-28T19:33:30;14.47;;;11.00;;
15307;SDS011;7755;52.208;6.964;2023-02-28T19:37:43;15.57;;;11.83;;
15307;SDS011;7755;52.208;6.964;2023-02-28T19:41:46;11.80;;;10.63;;
15307;SDS011;7755;52.208;6.964;2023-02-28T19:45:50;12.70;;;11.37;;
15307;SDS011;7755;52.208;6.964;2023-02-28T19:49:53;14.20;;;12.67;;
15307;SDS011;7755;52.208;6.964;2023-02-28T19:53:58;13.03;;;11.87;;
15307;SDS011;7755;52.208;6.964;2023-02-28T19:58:01;13.57;;;12.27;;
15307;SDS011;7755;52.208;6.964;2023-02-28T20:02:05;16.73;;;14.23;;
15307;SDS011;7755;52.208;6.964;2023-02-28T20:06:13;14.70;;;13.37;;
15307;SDS011;7755;52.208;6.964;2023-02-28T20:10:18;13.63;;;12.43;;
15307;SDS011;7755;52.208;6.964;2023-02-28T20:14:21;13.10;;;11.77;;
15307;SDS011;7755;52.208;6.964;2023-02-28T20:18:26;11.10;;;10.10;;
15307;SDS011;7755;52.208;6.964;2023-02-28T20:26:33;11.67;;;10.53;;
15307;SDS011;7755;52.208;6.964;2023-02-28T20:30:39;12.93;;;11.83;;
15307;SDS011;7755;52.208;6.964;2023-02-28T20:34:44;13.63;;;12.07;;
15307;SDS011;7755;52.208;6.964;2023-02-28T20:38:47;13.90;;;12.50;;
15307;SDS011;7755;52.208;6.964;2023-02-28T20:42:53;13.70;;;10.83;;
15307;SDS011;7755;52.208;6.964;2023-02-28T20:46:56;12.67;;;11.33;;
15307;SDS011;7755;52.208;6.964;2023-02-28T20:51:02;24.07;;;19.67;;
15307;SDS011;7755;52.208;6.964;2023-02-28T20:55:06;22.87;;;18.67;;
15307;SDS011;7755;52.208;6.964;2023-02-28T20:59:12;20.27;;;16.83;;
15307;SDS011;7755;52.208;6.964;2023-02-28T21:03:15;17.37;;;15.57;;
15307;SDS011;7755;52.208;6.964;2023-02-28T21:07:18;19.20;;;15.27;;
15307;SDS011;7755;52.208;6.964;2023-02-28T21:11:22;17.47;;;15.23;;
15307;SDS011;7755;52.208;6.964;2023-02-28T21:15:27;17.00;;;14.63;;
15307;SDS011;7755;52.208;6.964;2023-02-28T21:24:00;16.93;;;15.20;;
15307;SDS011;7755;52.208;6.964;2023-02-28T21:28:04;17.80;;;15.90;;
15307;SDS011;7755;52.208;6.964;2023-02-28T21:32:11;18.00;;;16.10;;
15307;SDS011;7755;52.208;6.964;2023-02-28T21:36:16;16.43;;;14.37;;
15307;SDS011;7755;52.208;6.964;2023-02-28T21:40:20;16.13;;;14.10;;
15307;SDS011;7755;52.208;6.964;2023-02-28T21:44:23;14.60;;;13.10;;
15307;SDS011;7755;52.208;6.964;2023-02-28T21:48:30;17.57;;;15.27;;
15307;SDS011;7755;52.208;6.964;2023-02-28T21:52:35;16.30;;;13.87;;
15307;SDS011;7755;52.208;6.964;2023-02-28T21:56:38;15.60;;;14.00;;
15307;SDS011;7755;52.208;6.964;2023-02-28T22:00:42;18.57;;;15.40;;
15307;SDS011;7755;52.208;6.964;2023-02-28T22:04:47;16.57;;;14.87;;
15307;SDS011;7755;52.208;6.964;2023-02-28T22:08:51;17.10;;;14.83;;
15307;SDS011;7755;52.208;6.964;2023-02-28T22:12:55;18.50;;;15.13;;
15307;SDS011;7755;52.208;6.964;2023-02-28T22:17:04;17.93;;;16.13;;
15307;SDS011;7755;52.208;6.964;2023-02-28T22:21:09;17.73;;;15.27;;
15307;SDS011;7755;52.208;6.964;2023-02-28T22:25:13;18.33;;;15.17;;
15307;SDS011;7755;52.208;6.964;2023-02-28T22:29:16;19.93;;;15.30;;
15307;SDS011;7755;52.208;6.964;2023-02-28T22:33:19;15.30;;;13.60;;
15307;SDS011;7755;52.208;6.964;2023-02-28T22:37:24;16.30;;;13.93;;
15307;SDS011;7755;52.208;6.964;2023-02-28T22:41:27;14.93;;;13.07;;
15307;SDS011;7755;52.208;6.964;2023-02-28T22:45:33;13.87;;;12.50;;
15307;SDS011;7755;52.208;6.964;2023-02-28T22:49:37;13.30;;;11.83;;
15307;SDS011;7755;52.208;6.964;2023-02-28T22:53:43;14.33;;;12.83;;
15307;SDS011;7755;52.208;6.964;2023-02-28T22:57:47;14.67;;;11.97;;
15307;SDS011;7755;52.208;6.964;2023-02-28T23:01:50;13.87;;;12.43;;
15307;SDS011;7755;52.208;6.964;2023-02-28T23:05:53;14.40;;;12.83;;
15307;SDS011;7755;52.208;6.964;2023-02-28T23:09:57;14.20;;;12.70;;
15307;SDS011;7755;52.208;6.964;2023-02-28T23:14:00;17.07;;;14.00;;
15307;SDS011;7755;52.208;6.964;2023-02-28T23:18:04;13.93;;;11.73;;
15307;SDS011;7755;52.208;6.964;2023-02-28T23:22:08;14.10;;;12.47;;
15307;SDS011;7755;52.208;6.964;2023-02-28T23:26:14;12.20;;;11.10;;
15307;SDS011;7755;52.208;6.964;2023-02-28T23:30:17;13.27;;;11.20;;
15307;SDS011;7755;52.208;6.964;2023-02-28T23:34:20;11.37;;;10.27;;
15307;SDS011;7755;52.208;6.964;2023-02-28T23:38:27;13.43;;;11.00;;
15307;SDS011;7755;52.208;6.964;2023-02-28T23:42:31;11.30;;;9.73;;
15307;SDS011;7755;52.208;6.964;2023-02-28T23:46:34;10.77;;;9.53;;
15307;SDS011;7755;52.208;6.964;2023-02-28T23:50:37;13.47;;;10.97;;
15307;SDS011;7755;52.208;6.964;2023-02-28T23:54:41;12.37;;;11.07;;
15307;SDS011;7755;52.208;6.964;2023-02-28T23:58:45;11.53;;;10.37;;
